Bezoek onze andere website:

Template documentation
and downloads

And another site



METAR rapporten vliegvelden

   
EBAW - Antwerp
Gewijzigd: 22-09-2018 10:50
Licht bewolkt  
Licht bewolkt  
   Wind: ZZW 16.7 km/h
Wind: ZZW 16.7 km/h
Temperatuur: 15°C
Dauwpunt: 9°C
Vochtigheid: 68%
Barometer: 1020 hPa
Bewolking: Licht bewolkt
Zicht: meer dan 10 km
Bewolking: Licht bewolkt 4000 ft
EBAW 220850Z 21009KT 9999 FEW040 15/09 Q1020 NOSIG
EBLG - Li├Ęge
Gewijzigd: 22-09-2018 10:50
Gedeeltelijk bewolkt  
Gedeeltelijk bewolkt  
   Wind: ZW 20.4 km/h
Wind: ZW 20.4 km/h
Temperatuur: 13°C
Dauwpunt: 8°C
Vochtigheid: 72%
Barometer: 1021 hPa
Bewolking: Gedeeltelijk bewolkt
Zicht: meer dan 10 km
Bewolking: Gedeeltelijk bewolkt 4900 ft
EBLG 220850Z 22011KT 9999 SCT049 13/08 Q1021 NOSIG
EBCV - Mons/Bergen
Gewijzigd: 20-09-2018 16:25
Verouderd
Licht bewolkt  
Licht bewolkt  
   Wind: Zuiden 25.9 km/h
Wind: Zuiden 25.9 km/h
Temperatuur: 24°C
Dauwpunt: 13°C
Vochtigheid: 50%
Barometer: 1014 hPa
Bewolking: Licht bewolkt
Zicht: meer dan 10 km
Bewolking: Licht bewolkt 21000 ft
EBCV 201425Z AUTO 19014KT 9999 FEW210/// 24/13 Q1014 BLU
EHBK - Maastricht
Gewijzigd: 22-09-2018 10:55
Grotendeels bewolkt  
Grotendeels bewolkt  
   Wind: ZW 25.9 km/h
Wind: ZW 25.9 km/h
Temperatuur: 13°C
Dauwpunt: 9°C
Vochtigheid: 77%
Barometer: 1021 hPa
Bewolking: Grotendeels bewolkt
Zicht: meer dan 10 km
Bewolking: Grotendeels bewolkt 3100 ft
EHBK 220855Z AUTO 22014KT 9999 BKN031 13/09 Q1021 NOSIG
ELLX - Luxemburg
Gewijzigd: 22-09-2018 10:50
Helder  
Helder  
   Wind: Zuiden 11.1 km/h
Wind: Zuiden 11.1 km/h
Temperatuur: 11°C
Dauwpunt: 7°C
Vochtigheid: 77%
Barometer: 1023 hPa
Zicht: meer dan 10 km
Bewolking: Helder
ELLX 220850Z 19006KT 140V250 CAVOK 11/07 Q1023 NOSIG
EBOS - Oostende
Gewijzigd: 22-09-2018 10:50
Licht bewolkt  
Licht bewolkt  
   Wind: ZZW 20.4 km/h
Wind: ZZW 20.4 km/h
Temperatuur: 13°C
Dauwpunt: 10°C
Vochtigheid: 82%
Barometer: 1020 hPa
Bewolking: Licht bewolkt
Zicht: meer dan 10 km
Bewolking: Licht bewolkt 2500 ft
EBOS 220850Z 21011KT 9999 FEW025 13/10 Q1020 NOSIG

Script ontwikkeld door  Saratoga-weather.org Aangepast voor de template door  Weerstation Leuven